Time;durP1;ratioP1;P1;durP2;ratioP2;P2;SDS_P1;SDS_P2;PMS_P1;PMS_P2;Temp;Humidity;BMP_temperature;BMP_pressure;BME280_temperature;BME280_humidity;BME280_pressure;Samples;Min_cycle;Max_cycle;Signal;HPM_P1;HPM_P2
2022/08/22 00:04:40;;;;;;;7.93;4.45;;;;;;;15.85;100.00;101662.03;10388882;28;20042;-76
2022/08/22 00:10:04;;;;;;;10.85;4.25;;;;;;;15.41;100.00;101604.03;10404312;28;20037;-75
2022/08/22 00:15:13;;;;;;;9.70;3.95;;;;;;;15.61;100.00;101650.50;10429452;28;20128;-76
2022/08/22 00:20:37;;;;;;;10.85;4.00;;;;;;;15.58;100.00;101650.22;10404129;28;20042;-76
2022/08/22 00:25:47;;;;;;;9.10;4.30;;;;;;;15.54;100.00;101658.22;10394720;28;20058;-75
2022/08/22 00:31:01;;;;;;;10.10;4.93;;;;;;;15.52;100.00;101664.06;10417925;28;20529;-75
2022/08/22 00:36:11;;;;;;;9.73;4.65;;;;;;;15.50;100.00;101660.72;10403738;28;20041;-76
2022/08/22 00:41:28;;;;;;;11.52;4.93;;;;;;;15.48;100.00;101664.84;10375240;28;20536;-75
2022/08/22 00:46:43;;;;;;;8.68;5.57;;;;;;;15.35;100.00;101646.75;10378203;28;20038;-75
2022/08/22 00:52:06;;;;;;;9.75;5.25;;;;;;;15.42;100.00;101672.31;10395273;28;20034;-76
2022/08/22 00:57:12;;;;;;;13.88;5.72;;;;;;;15.42;100.00;101669.56;10379026;28;20073;-75
2022/08/22 01:02:19;;;;;;;10.55;5.20;;;;;;;15.38;100.00;101662.88;10378742;28;20440;-76
2022/08/22 01:07:35;;;;;;;12.18;5.00;;;;;;;15.26;100.00;101651.97;10378997;28;20042;-76
2022/08/22 01:12:43;;;;;;;8.70;4.93;;;;;;;15.19;100.00;101647.75;10377866;28;20034;-76
2022/08/22 01:18:08;;;;;;;14.38;5.85;;;;;;;15.24;100.00;101667.22;10360270;28;20042;-76
2022/08/22 01:23:55;;;;;;;12.68;5.40;;;;;;;15.24;100.00;101667.22;10361934;28;20088;-76
2022/08/22 01:29:40;;;;;;;10.52;5.38;;;;;;;15.21;100.00;101670.50;10333871;28;20042;-76
2022/08/22 01:34:43;;;;;;;7.80;4.53;;;;;;;14.88;100.00;101628.94;10361856;28;20452;-76
2022/08/22 01:40:02;;;;;;;15.48;5.22;;;;;;;15.15;100.00;101680.72;10376307;28;20457;-75
2022/08/22 01:45:17;;;;;;;8.77;4.75;;;;;;;15.11;100.00;101688.75;10392602;28;20053;-75
2022/08/22 01:50:31;;;;;;;11.02;5.32;;;;;;;15.10;100.00;101683.47;10375868;28;20049;-76
2022/08/22 01:56:36;;;;;;;10.35;4.78;;;;;;;15.05;100.00;101684.25;10336464;28;20050;-76
2022/08/22 02:02:23;;;;;;;12.60;5.55;;;;;;;15.11;100.00;101701.75;10306951;28;20569;-76
2022/08/22 02:07:42;;;;;;;13.52;5.80;;;;;;;15.01;100.00;101680.34;10370515;28;20525;-76
2022/08/22 02:12:47;;;;;;;13.48;5.47;;;;;;;15.13;100.00;101702.31;10350346;28;20037;-76
2022/08/22 02:18:07;;;;;;;11.55;5.63;;;;;;;15.16;100.00;101698.22;10388404;28;20053;-76
2022/08/22 02:23:34;;;;;;;10.35;5.30;;;;;;;15.13;100.00;101699.56;10389942;28;20321;-77
2022/08/22 02:28:38;;;;;;;13.32;5.72;;;;;;;15.08;100.00;101696.75;10387859;28;20045;-76
2022/08/22 02:33:47;;;;;;;11.02;5.25;;;;;;;15.00;100.00;101700.84;10375533;28;20030;-77
2022/08/22 02:39:17;;;;;;;11.68;5.70;;;;;;;14.80;100.00;101684.88;10374624;28;20102;-76
2022/08/22 02:44:38;;;;;;;10.57;5.75;;;;;;;14.68;100.00;101687.81;10387414;28;20104;-76
2022/08/22 02:50:00;;;;;;;13.00;5.85;;;;;;;14.66;100.00;101678.09;10373369;28;20049;-76
2022/08/22 02:55:05;;;;;;;12.98;6.32;;;;;;;14.46;100.00;101664.81;10405539;28;20065;-76
2022/08/22 03:00:20;;;;;;;12.95;6.80;;;;;;;14.47;100.00;101685.88;10398523;28;20037;-76
2022/08/22 03:05:25;;;;;;;11.68;6.97;;;;;;;14.38;100.00;101679.13;10413909;28;20100;-77
2022/08/22 03:10:28;;;;;;;9.45;6.63;;;;;;;14.33;100.00;101675.22;10357479;28;20068;-78
2022/08/22 03:15:35;;;;;;;14.02;6.40;;;;;;;14.25;100.00;101678.44;10380562;28;20053;-76
2022/08/22 03:20:45;;;;;;;12.50;6.55;;;;;;;14.23;100.00;101677.88;10397130;28;20049;-76
2022/08/22 03:25:55;;;;;;;12.02;7.07;;;;;;;14.16;100.00;101677.25;10374598;28;20106;-76
2022/08/22 03:30:57;;;;;;;13.27;7.07;;;;;;;13.95;100.00;101661.47;10333459;28;20449;-77
2022/08/22 03:36:13;;;;;;;11.77;6.35;;;;;;;14.09;100.00;101679.34;10347736;28;20065;-77
2022/08/22 03:41:42;;;;;;;10.38;6.53;;;;;;;14.03;100.00;101674.84;10329268;28;20047;-77
2022/08/22 03:46:48;;;;;;;14.93;7.50;;;;;;;13.98;100.00;101672.03;10330571;28;20039;-76
2022/08/22 03:51:51;;;;;;;10.77;6.75;;;;;;;13.93;100.00;101670.88;10336073;28;20049;-76
2022/08/22 03:57:17;;;;;;;12.68;7.13;;;;;;;13.91;100.00;101672.19;10356564;28;20061;-76
2022/08/22 04:02:29;;;;;;;12.63;6.88;;;;;;;13.89;100.00;101668.84;10337796;28;20073;-76
2022/08/22 04:08:00;;;;;;;16.20;7.40;;;;;;;13.90;100.00;101667.78;10393968;28;20049;-75
2022/08/22 04:13:33;;;;;;;12.45;6.43;;;;;;;13.91;100.00;101667.53;10355539;28;20102;-76
2022/08/22 04:18:55;;;;;;;15.65;7.68;;;;;;;13.92;100.00;101658.13;10379321;28;20046;-78
2022/08/22 04:24:01;;;;;;;15.13;8.15;;;;;;;14.01;100.00;101682.56;10378454;28;20041;-78
2022/08/22 04:29:06;;;;;;;17.45;7.95;;;;;;;14.05;100.00;101679.03;10379013;28;20042;-78
2022/08/22 04:34:29;;;;;;;17.67;7.97;;;;;;;14.16;100.00;101682.78;10379970;28;20052;-78
2022/08/22 04:39:34;;;;;;;15.77;8.48;;;;;;;14.21;100.00;101682.81;10380882;28;20046;-76
2022/08/22 04:44:42;;;;;;;18.02;9.30;;;;;;;14.05;100.00;101644.97;10361945;28;20458;-75
2022/08/22 04:49:48;;;;;;;17.05;10.30;;;;;;;14.40;100.00;101688.03;10376819;28;20029;-76
2022/08/22 04:54:54;;;;;;;18.00;8.98;;;;;;;14.59;100.00;101700.44;10383165;28;20093;-76
2022/08/22 04:59:59;;;;;;;13.43;9.70;;;;;;;14.68;100.00;101704.44;10421150;28;20091;-75
2022/08/22 05:05:15;;;;;;;16.30;9.95;;;;;;;14.81;100.00;101705.09;10345274;28;20042;-76
2022/08/22 05:10:22;;;;;;;14.18;8.60;;;;;;;15.02;100.00;101711.66;10382530;28;20259;-76
2022/08/22 05:15:27;;;;;;;;;;;;;;;15.19;100.00;101719.84;10401813;28;20044;-76
2022/08/22 05:20:28;;;;;;;18.95;8.98;;;;;;;15.30;100.00;101711.34;10399352;28;19917;-75
2022/08/22 05:25:31;;;;;;;15.20;9.23;;;;;;;15.43;100.00;101718.38;10376640;28;20049;-77
2022/08/22 05:30:31;;;;;;;16.52;9.35;;;;;;;15.53;100.00;101712.91;10376453;28;20046;-77
2022/08/22 05:35:35;;;;;;;17.65;8.88;;;;;;;15.59;100.00;101707.41;10376612;28;20038;-77
2022/08/22 05:40:36;;;;;;;18.42;9.73;;;;;;;15.74;100.00;101725.00;10375331;28;20033;-77
2022/08/22 05:45:37;;;;;;;19.70;8.80;;;;;;;15.87;100.00;101720.06;10379411;28;20041;-77
2022/08/22 05:50:44;;;;;;;21.15;9.35;;;;;;;15.99;100.00;101717.09;10415368;28;20052;-77
2022/08/22 05:56:03;;;;;;;;;;;;;;;16.16;100.00;101728.81;10400220;28;20386;-77
2022/08/22 06:01:24;;;;;;;18.27;9.13;;;;;;;16.46;100.00;101727.28;10417042;28;19959;-76
2022/08/22 06:06:25;;;;;;;14.20;8.15;;;;;;;16.63;100.00;101721.47;10416828;28;20042;-77
2022/08/22 06:11:41;;;;;;;17.35;8.23;;;;;;;16.74;100.00;101704.56;10415854;28;20041;-77
2022/08/22 06:17:14;;;;;;;13.70;6.63;;;;;;;17.08;100.00;101729.09;10389688;28;20065;-77
2022/08/22 06:22:20;;;;;;;17.95;6.15;;;;;;;17.22;100.00;101725.75;10407908;28;20048;-76
2022/08/22 06:27:22;;;;;;;13.43;6.97;;;;;;;17.35;100.00;101727.97;10374857;28;20034;-77
2022/08/22 06:32:28;;;;;;;17.98;4.90;;;;;;;17.49;100.00;101731.88;10390975;28;20040;-76
2022/08/22 06:37:31;;;;;;;9.23;4.80;;;;;;;17.60;100.00;101729.06;10407885;28;20034;-77
2022/08/22 06:42:32;;;;;;;17.52;6.82;;;;;;;17.78;100.00;101725.69;10376021;28;20599;-76
2022/08/22 06:47:38;;;;;;;11.25;5.10;;;;;;;17.85;100.00;101717.88;10362603;28;20046;-76
2022/08/22 06:52:58;;;;;;;16.85;5.82;;;;;;;18.04;100.00;101731.19;10371393;28;20034;-76
2022/08/22 06:58:02;;;;;;;16.38;4.93;;;;;;;18.14;100.00;101734.78;10401458;28;20050;-76
2022/08/22 07:03:19;;;;;;;18.00;5.28;;;;;;;18.35;100.00;101746.72;10373158;28;20038;-76
2022/08/22 07:08:20;;;;;;;13.20;5.07;;;;;;;18.53;100.00;101741.59;10375967;28;20041;-76
2022/08/22 07:13:20;;;;;;;17.25;5.30;;;;;;;18.61;100.00;101715.88;10373281;28;20333;-75
2022/08/22 07:18:23;;;;;;;15.13;5.25;;;;;;;18.84;100.00;101724.69;10372973;28;20038;-76
2022/08/22 07:23:46;;;;;;;13.27;4.63;;;;;;;18.93;100.00;101739.69;10372617;28;20490;-76
2022/08/22 07:29:15;;;;;;;11.73;4.30;;;;;;;19.06;100.00;101733.47;10355511;28;20046;-76
2022/08/22 07:34:50;;;;;;;13.30;4.68;;;;;;;19.19;100.00;101726.38;10357782;28;20034;-80
2022/08/22 07:39:53;;;;;;;10.07;3.88;;;;;;;19.27;100.00;101724.94;10372219;28;20046;-80
2022/08/22 07:45:05;;;;;;;14.25;4.88;;;;;;;19.42;100.00;101735.94;10349298;28;20042;-80
2022/08/22 07:50:07;;;;;;;8.15;4.20;;;;;;;19.55;100.00;101724.13;10371478;28;20053;-81
2022/08/22 07:55:24;;;;;;;12.07;4.15;;;;;;;19.78;100.00;101732.81;10371653;28;20042;-81
2022/08/22 08:00:24;;;;;;;8.18;4.68;;;;;;;19.93;100.00;101731.84;10356056;28;20097;-81
2022/08/22 08:05:27;;;;;;;14.02;5.07;;;;;;;19.94;100.00;101714.75;10408748;28;20049;-80
2022/08/22 08:10:30;;;;;;;15.68;5.10;;;;;;;20.13;100.00;101717.63;10412962;28;20042;-82
2022/08/22 08:15:33;;;;;;;15.73;4.38;;;;;;;20.29;100.00;101715.44;10380067;28;20034;-81
2022/08/22 08:20:34;;;;;;;13.05;3.85;;;;;;;20.47;100.00;101705.44;10396637;28;20033;-81
2022/08/22 08:25:47;;;;;;;6.68;3.35;;;;;;;20.53;100.00;101701.44;10410398;28;20141;-82
2022/08/22 08:30:55;;;;;;;17.00;4.43;;;;;;;20.69;100.00;101706.81;10334300;28;20061;-81
2022/08/22 08:36:02;;;;;;;17.17;3.35;;;;;;;20.64;100.00;101688.16;10406310;28;20270;-81
2022/08/22 08:41:26;;;;;;;11.13;3.50;;;;;;;20.72;100.00;101707.03;10355308;28;20065;-79
2022/08/22 08:46:42;;;;;;;12.98;3.15;;;;;;;20.74;100.00;101699.19;10380514;28;20109;-81
2022/08/22 08:51:51;;;;;;;14.70;3.78;;;;;;;20.83;100.00;101679.72;10381347;28;20046;-81
2022/08/22 08:57:30;;;;;;;12.25;3.03;;;;;;;21.29;100.00;101689.31;10355430;28;20057;-80
2022/08/22 09:02:52;;;;;;;9.45;4.05;;;;;;;21.45;100.00;101687.94;10375602;28;20042;-81
2022/08/22 09:08:14;;;;;;;9.18;3.08;;;;;;;21.70;100.00;101685.78;10394803;28;20038;-79
2022/08/22 09:13:27;;;;;;;10.23;3.63;;;;;;;21.75;100.00;101689.34;10394476;28;20050;-81
2022/08/22 09:19:01;;;;;;;8.25;3.42;;;;;;;21.74;100.00;101686.84;10379594;28;20849;-81
2022/08/22 09:24:16;;;;;;;14.25;4.03;;;;;;;21.49;100.00;101641.34;10338382;28;20045;-83
2022/08/22 09:29:26;;;;;;;8.05;2.63;;;;;;;21.72;100.00;101687.13;10369819;28;20770;-81
2022/08/22 09:34:33;;;;;;;9.82;2.53;;;;;;;21.58;100.00;101651.84;10336470;28;20053;-82
2022/08/22 09:39:50;;;;;;;10.73;3.70;;;;;;;21.91;100.00;101687.06;10376733;28;20069;-79
2022/08/22 09:45:05;;;;;;;;;;;;;;;22.15;100.00;101677.59;10368128;28;20042;-76
2022/08/22 09:50:12;;;;;;;8.35;2.55;;;;;;;22.68;100.00;101667.75;10372877;28;19921;-82
2022/08/22 09:55:38;;;;;;;11.68;3.42;;;;;;;22.78;100.00;101664.69;10391968;28;20052;-79
2022/08/22 10:00:54;;;;;;;15.90;2.83;;;;;;;22.51;100.00;101674.00;10375444;28;20038;-83
2022/08/22 10:05:58;;;;;;;11.90;3.03;;;;;;;22.06;100.00;101637.41;10360389;28;20109;-81
2022/08/22 10:11:13;;;;;;;11.05;2.20;;;;;;;22.24;100.00;101675.75;10375504;28;20040;-81
2022/08/22 10:16:47;;;;;;;8.27;2.72;;;;;;;22.15;100.00;101669.16;10375291;28;20042;-83
2022/08/22 10:22:13;;;;;;;7.97;2.10;;;;;;;22.55;100.00;101655.38;10361069;28;20115;-76
2022/08/22 10:27:16;;;;;;;9.23;2.13;;;;;;;22.59;100.00;101605.91;10350014;28;20047;-74
2022/08/22 10:32:44;;;;;;;7.82;2.40;;;;;;;23.00;100.00;101635.75;10333847;28;20490;-83
2022/08/22 10:38:13;;;;;;;9.88;2.50;;;;;;;23.05;100.00;101624.44;10370516;28;20073;-72
2022/08/22 10:43:20;;;;;;;8.18;2.30;;;;;;;22.94;100.00;101634.22;10369000;28;20053;-78
2022/08/22 10:48:39;;;;;;;9.57;2.15;;;;;;;23.01;100.00;101643.06;10342542;28;20072;-81
2022/08/22 10:53:45;;;;;;;6.57;2.13;;;;;;;23.20;100.00;101633.59;10373646;28;20088;-85
2022/08/22 10:59:11;;;;;;;5.68;1.20;;;;;;;23.28;100.00;101615.97;10349024;28;20101;-83
2022/08/22 11:04:39;;;;;;;10.25;2.67;;;;;;;23.63;100.00;101621.75;10398338;28;20033;-82
2022/08/22 11:09:43;;;;;;;6.18;1.63;;;;;;;23.80;94.92;101616.19;10416342;28;20042;-85
2022/08/22 11:15:08;;;;;;;10.00;1.80;;;;;;;23.91;96.96;101623.16;10395577;28;20033;-82
2022/08/22 11:20:19;;;;;;;5.43;1.70;;;;;;;24.03;92.17;101613.28;10372933;28;20034;-85
2022/08/22 11:25:40;;;;;;;6.75;1.90;;;;;;;23.87;91.70;101581.97;10366330;28;20038;-86
2022/08/22 11:30:56;;;;;;;7.97;2.10;;;;;;;24.08;93.39;101613.94;10424851;28;20034;-82
2022/08/22 11:36:09;;;;;;;8.48;1.92;;;;;;;23.97;90.86;101606.97;10409459;28;20553;-83
2022/08/22 11:41:29;;;;;;;10.43;2.38;;;;;;;23.82;91.88;101590.56;10372869;28;20064;-83
2022/08/22 11:46:39;;;;;;;9.85;2.08;;;;;;;24.00;91.43;101597.03;10396085;28;20088;-84
2022/08/22 11:52:01;;;;;;;9.35;1.73;;;;;;;24.02;94.13;101608.78;10357094;28;20101;-76
2022/08/22 11:57:07;;;;;;;10.35;1.70;;;;;;;24.07;92.85;101603.03;10385952;28;20073;-84
2022/08/22 12:02:20;;;;;;;14.32;3.15;;;;;;;24.25;93.68;101599.06;10393023;28;20038;-83
2022/08/22 12:07:35;;;;;;;6.28;2.05;;;;;;;24.43;90.10;101593.44;10380339;28;20052;-82
2022/08/22 12:12:47;;;;;;;7.03;2.20;;;;;;;24.55;89.38;101594.44;10416549;28;20045;-82
2022/08/22 12:18:06;;;;;;;6.00;2.13;;;;;;;25.21;90.64;101595.34;10437919;28;20044;-82
2022/08/22 12:23:28;;;;;;;6.55;2.05;;;;;;;25.76;85.81;101563.44;10423165;28;20041;-81
2022/08/22 12:28:34;;;;;;;10.90;1.83;;;;;;;26.20;87.18;101560.31;10417191;28;20053;-82
2022/08/22 12:33:56;;;;;;;6.68;1.80;;;;;;;26.36;82.93;101538.75;10405375;28;20042;-81
2022/08/22 12:39:29;;;;;;;7.25;2.40;;;;;;;26.51;83.47;101545.75;10421154;28;20042;-81
2022/08/22 12:44:39;;;;;;;10.80;2.55;;;;;;;26.51;79.44;101540.94;10419931;28;20045;-80
2022/08/22 12:49:55;;;;;;;4.88;2.00;;;;;;;26.59;83.04;101539.22;10379371;28;20117;-82
2022/08/22 12:55:07;;;;;;;9.00;2.28;;;;;;;26.37;82.32;101544.03;10418675;28;20520;-78
2022/08/22 13:00:23;;;;;;;9.23;1.85;;;;;;;26.54;81.14;101533.75;10380409;28;20585;-80
2022/08/22 13:05:26;;;;;;;7.63;2.30;;;;;;;26.07;82.28;101494.53;10355913;28;20045;-79
2022/08/22 13:10:44;;;;;;;6.93;1.90;;;;;;;26.43;82.31;101521.25;10360676;28;20046;-78
2022/08/22 13:15:54;;;;;;;7.43;2.10;;;;;;;27.29;82.34;101510.19;10338554;28;20038;-78
2022/08/22 13:20:55;;;;;;;7.30;1.75;;;;;;;28.00;75.49;101491.00;10377238;28;20037;-77
2022/08/22 13:26:12;;;;;;;5.47;2.00;;;;;;;27.68;76.47;101487.97;10351144;28;20095;-79
2022/08/22 13:31:29;;;;;;;12.02;2.75;;;;;;;27.92;75.15;101496.44;10415660;28;20425;-80
2022/08/22 13:36:30;;;;;;;7.85;2.03;;;;;;;28.44;73.21;101480.53;10418574;28;20025;-80
2022/08/22 13:41:33;;;;;;;10.18;2.28;;;;;;;28.39;71.10;101480.81;10401152;28;20029;-78
2022/08/22 13:46:35;;;;;;;7.13;3.00;;;;;;;28.38;71.07;101481.97;10385802;28;20041;-77
2022/08/22 13:51:48;;;;;;;7.63;2.42;;;;;;;30.03;68.13;101463.38;10385399;28;20501;-78
2022/08/22 13:57:18;;;;;;;7.50;2.38;;;;;;;31.05;63.20;101453.59;10385882;28;20102;-79
2022/08/22 14:02:21;;;;;;;6.93;2.45;;;;;;;31.56;62.26;101456.00;10368075;28;20042;-79
2022/08/22 14:07:35;;;;;;;9.35;2.10;;;;;;;31.40;59.59;101428.91;10376219;28;20570;-78
2022/08/22 14:12:55;;;;;;;9.52;2.40;;;;;;;31.81;58.98;101444.13;10360282;28;20116;-77
2022/08/22 14:18:13;;;;;;;4.32;1.67;;;;;;;32.65;56.33;101436.16;10377311;28;20272;-77
2022/08/22 14:23:22;;;;;;;7.35;2.55;;;;;;;32.54;55.04;101429.56;10370925;28;20046;-80
2022/08/22 14:28:28;;;;;;;4.72;1.80;;;;;;;32.64;54.64;101393.78;10414551;28;20041;-79
2022/08/22 14:33:51;;;;;;;7.65;2.22;;;;;;;33.06;54.17;101427.53;10415609;28;20037;-79
2022/08/22 14:39:19;;;;;;;9.30;2.40;;;;;;;32.90;53.60;101424.16;10374879;28;20538;-75
2022/08/22 14:44:51;;;;;;;7.70;2.17;;;;;;;32.92;53.84;101398.91;10412848;28;20040;-79
2022/08/22 14:49:58;;;;;;;8.00;2.60;;;;;;;32.32;53.01;101395.09;10388498;28;20048;-79
2022/08/22 14:55:07;;;;;;;10.48;2.60;;;;;;;30.61;57.11;101405.69;10398662;28;20044;-78
2022/08/22 15:00:12;;;;;;;5.80;1.88;;;;;;;30.86;57.88;101410.97;10416690;28;20120;-81
2022/08/22 15:05:17;;;;;;;6.70;2.10;;;;;;;31.35;58.09;101410.94;10358304;28;20061;-80
2022/08/22 15:10:24;;;;;;;7.85;2.33;;;;;;;31.27;55.75;101408.41;10395647;28;20037;-79
2022/08/22 15:15:50;;;;;;;11.10;2.00;;;;;;;31.98;55.80;101394.31;10415720;28;20037;-80
2022/08/22 15:21:06;;;;;;;9.15;2.33;;;;;;;32.20;54.94;101384.00;10409748;28;20049;-81
2022/08/22 15:26:07;;;;;;;;;;;;;;;31.43;55.50;101394.81;10380032;28;20221;-71
2022/08/22 15:31:13;;;;;;;6.95;1.80;;;;;;;30.72;55.58;101383.16;10332116;28;19918;-76
2022/08/22 15:36:19;;;;;;;10.00;2.55;;;;;;;30.66;55.55;101379.00;10354710;28;20093;-77
2022/08/22 15:41:36;;;;;;;7.85;2.08;;;;;;;31.54;55.24;101378.72;10355537;28;20057;-79
2022/08/22 15:46:51;;;;;;;5.38;2.05;;;;;;;32.21;52.79;101377.09;10394522;28;20045;-76
2022/08/22 15:51:57;;;;;;;7.05;1.95;;;;;;;32.64;52.14;101368.13;10387611;28;20042;-76
2022/08/22 15:57:10;;;;;;;10.00;2.50;;;;;;;32.50;50.45;101363.13;10402923;28;20654;-76
2022/08/22 16:02:40;;;;;;;5.82;1.73;;;;;;;30.90;55.28;101374.94;10412879;28;20041;-76
2022/08/22 16:07:58;;;;;;;11.23;2.88;;;;;;;30.48;59.35;101402.22;10398196;28;20124;-76
2022/08/22 16:13:29;;;;;;;6.78;2.33;;;;;;;28.90;60.88;101395.13;10413568;28;20041;-77
2022/08/22 16:18:33;;;;;;;7.55;2.03;;;;;;;27.90;63.63;101405.41;10400627;28;20041;-76
2022/08/22 16:23:45;;;;;;;7.93;3.20;;;;;;;26.83;67.63;101411.38;10385948;28;20046;-75
2022/08/22 16:28:51;;;;;;;9.90;2.80;;;;;;;26.23;70.42;101413.69;10400056;28;20033;-76
2022/08/22 16:33:52;;;;;;;;;;;;;;;25.73;74.31;101409.81;10418526;28;20057;-75
2022/08/22 16:38:55;;;;;;;9.48;3.65;;;;;;;25.36;77.90;101422.88;10384708;28;20344;-75
2022/08/22 16:44:14;;;;;;;8.52;2.65;;;;;;;25.23;80.70;101421.13;10366288;28;20038;-75
2022/08/22 16:49:28;;;;;;;8.73;3.05;;;;;;;25.08;84.11;101428.16;10384791;28;20064;-75
2022/08/22 16:54:43;;;;;;;9.68;2.38;;;;;;;24.82;84.60;101402.94;10381521;28;20030;-76
2022/08/22 17:00:11;;;;;;;9.70;2.17;;;;;;;24.84;86.72;101417.50;10371787;28;20393;-75
2022/08/22 17:05:31;;;;;;;8.07;2.30;;;;;;;24.78;87.40;101414.03;10367072;28;20062;-75
2022/08/22 17:10:51;;;;;;;7.40;1.98;;;;;;;24.53;86.04;101387.66;10376124;28;20070;-75
2022/08/22 17:16:14;;;;;;;9.55;2.65;;;;;;;24.55;88.27;101427.56;10392246;28;20054;-75
2022/08/22 17:21:23;;;;;;;8.93;2.40;;;;;;;24.32;89.76;101441.81;10349992;28;20679;-75
2022/08/22 17:26:51;;;;;;;9.48;3.33;;;;;;;24.03;93.94;101433.28;10334327;28;20042;-75
2022/08/22 17:32:06;;;;;;;9.48;2.35;;;;;;;23.76;96.27;101435.22;10373453;28;20030;-76
2022/08/22 17:37:39;;;;;;;7.85;2.58;;;;;;;23.54;99.42;101425.81;10390805;28;20042;-74
2022/08/22 17:42:58;;;;;;;12.98;2.72;;;;;;;23.42;100.00;101444.44;10378089;28;20470;-75
2022/08/22 17:48:12;;;;;;;5.10;2.10;;;;;;;23.29;100.00;101449.06;10390619;28;20033;-76
2022/08/22 17:53:45;;;;;;;8.05;2.65;;;;;;;23.07;100.00;101459.25;10400340;28;20045;-75
2022/08/22 17:59:23;;;;;;;7.97;2.72;;;;;;;22.83;100.00;101439.13;10400600;28;20488;-76
2022/08/22 18:04:40;;;;;;;8.30;2.60;;;;;;;22.88;100.00;101448.25;10339345;28;20420;-76
2022/08/22 18:09:51;;;;;;;7.20;2.53;;;;;;;22.72;100.00;101450.66;10334281;28;20173;-77
2022/08/22 18:15:02;;;;;;;10.85;2.58;;;;;;;22.59;100.00;101454.34;10396577;28;20060;-76
2022/08/22 18:20:13;;;;;;;10.02;2.20;;;;;;;22.17;100.00;101437.75;10379471;28;20044;-76
2022/08/22 18:25:16;;;;;;;7.82;3.03;;;;;;;22.14;100.00;101465.63;10374572;28;20034;-76
2022/08/22 18:30:37;;;;;;;6.82;2.33;;;;;;;21.82;100.00;101466.66;10429669;28;20036;-75
2022/08/22 18:35:46;;;;;;;10.23;2.58;;;;;;;21.64;100.00;101485.28;10400239;28;20044;-76
2022/08/22 18:40:56;;;;;;;7.88;2.17;;;;;;;21.45;100.00;101479.81;10356645;28;20579;-76
2022/08/22 18:45:58;;;;;;;8.27;2.47;;;;;;;21.19;100.00;101480.34;10412389;28;20060;-77
2022/08/22 18:51:37;;;;;;;6.00;2.22;;;;;;;21.10;100.00;101488.63;10381707;28;20045;-75
2022/08/22 18:56:50;;;;;;;13.15;3.10;;;;;;;21.02;100.00;101500.53;10397668;28;20125;-76
2022/08/22 19:02:19;;;;;;;6.75;2.72;;;;;;;20.91;100.00;101497.13;10366848;28;20512;-76
2022/08/22 19:07:58;;;;;;;9.05;2.53;;;;;;;20.79;100.00;101498.75;10402265;28;20045;-76
2022/08/22 19:13:16;;;;;;;6.03;2.63;;;;;;;20.70;100.00;101505.06;10372724;28;20038;-76
2022/08/22 19:18:24;;;;;;;11.23;2.60;;;;;;;20.60;100.00;101507.22;10386197;28;20037;-76
2022/08/22 19:23:30;;;;;;;7.85;2.50;;;;;;;20.53;100.00;101513.19;10328675;28;20041;-76
2022/08/22 19:28:34;;;;;;;5.88;2.47;;;;;;;20.35;100.00;101490.53;10326704;28;20069;-76
2022/08/22 19:33:39;;;;;;;7.00;2.83;;;;;;;20.29;100.00;101505.72;10372210;28;20037;-76
2022/08/22 19:39:06;;;;;;;10.98;3.13;;;;;;;20.07;100.00;101497.16;10377583;28;20038;-75
2022/08/22 19:44:31;;;;;;;8.38;2.65;;;;;;;19.85;100.00;101501.41;10385500;28;20050;-75
2022/08/22 19:49:36;;;;;;;16.25;3.33;;;;;;;19.84;100.00;101507.28;10385144;28;20068;-86
2022/08/22 19:55:03;;;;;;;7.88;2.63;;;;;;;19.77;100.00;101504.88;10381787;28;20030;-86
2022/08/22 20:00:12;;;;;;;7.28;2.75;;;;;;;19.59;100.00;101488.88;10365390;28;20080;-84
2022/08/22 20:05:48;;;;;;;8.82;2.35;;;;;;;19.54;100.00;101487.00;10328478;28;20065;-82
2022/08/22 20:10:57;;;;;;;4.57;2.33;;;;;;;19.60;100.00;101501.75;10359617;28;20050;-84
2022/08/22 20:16:15;;;;;;;6.88;2.60;;;;;;;19.47;100.00;101492.13;10382777;28;20049;-85
2022/08/22 20:21:53;;;;;;;6.40;2.65;;;;;;;19.52;100.00;101498.47;10408122;28;20029;-83
2022/08/22 20:26:55;;;;;;;5.70;2.85;;;;;;;19.43;100.00;101486.31;10403247;28;20056;-83
2022/08/22 20:31:55;;;;;;;10.98;3.45;;;;;;;19.34;100.00;101491.72;10354632;28;20027;-84
2022/08/22 20:36:56;;;;;;;6.20;2.47;;;;;;;19.22;100.00;101480.13;10321588;28;20034;-84
2022/08/22 20:42:12;;;;;;;8.88;3.00;;;;;;;19.00;100.00;101461.16;10328235;28;20038;-77
2022/08/22 20:47:19;;;;;;;5.80;2.90;;;;;;;18.94;100.00;101473.50;10342480;28;20077;-77
2022/08/22 20:52:34;;;;;;;10.60;2.92;;;;;;;18.87;100.00;101468.28;10340224;28;20052;-77
2022/08/22 20:57:42;;;;;;;15.20;3.33;;;;;;;18.82;100.00;101475.88;10398058;28;20050;-77
2022/08/22 21:02:46;;;;;;;9.73;2.95;;;;;;;18.70;100.00;101463.13;10390890;28;20026;-77
2022/08/22 21:08:07;;;;;;;12.63;2.90;;;;;;;18.80;100.00;101472.56;10379397;28;20063;-77
2022/08/22 21:13:29;;;;;;;11.65;3.47;;;;;;;18.84;100.00;101479.19;10389835;28;20037;-76
2022/08/22 21:18:30;;;;;;;11.50;3.50;;;;;;;18.86;100.00;101480.56;10362789;28;20037;-76
2022/08/22 21:23:31;;;;;;;5.80;3.67;;;;;;;18.85;100.00;101472.47;10378245;28;20034;-77
2022/08/22 21:29:01;;;;;;;11.23;3.55;;;;;;;18.87;100.00;101461.84;10396578;28;20057;-76
2022/08/22 21:34:02;;;;;;;8.77;3.53;;;;;;;18.86;100.00;101461.03;10377831;28;20053;-77
2022/08/22 21:39:05;;;;;;;6.45;3.22;;;;;;;18.84;100.00;101459.69;10386218;28;20042;-76
2022/08/22 21:44:27;;;;;;;13.65;4.45;;;;;;;18.90;100.00;101476.06;10373712;28;20042;-77
2022/08/22 21:49:28;;;;;;;6.72;3.83;;;;;;;18.79;100.00;101470.88;10389849;28;20136;-76
2022/08/22 21:54:38;;;;;;;8.80;3.45;;;;;;;18.65;100.00;101457.59;10395635;28;20636;-77
2022/08/22 21:59:39;;;;;;;11.60;3.50;;;;;;;18.56;100.00;101462.16;10385326;28;20663;-76
2022/08/22 22:04:39;;;;;;;10.25;3.70;;;;;;;18.26;100.00;101441.81;10377188;28;20493;-76
2022/08/22 22:09:39;;;;;;;14.45;4.05;;;;;;;18.25;100.00;101469.97;10375433;28;20034;-77
2022/08/22 22:14:44;;;;;;;8.73;3.53;;;;;;;18.03;100.00;101450.94;10345631;28;20030;-77
2022/08/22 22:19:45;;;;;;;12.15;5.13;;;;;;;17.89;100.00;101454.38;10385898;28;20399;-77
2022/08/22 22:24:46;;;;;;;10.43;4.15;;;;;;;17.79;100.00;101459.97;10386767;28;20038;-76
2022/08/22 22:29:46;;;;;;;16.85;5.70;;;;;;;17.66;100.00;101460.63;10376034;28;20045;-76
2022/08/22 22:34:46;;;;;;;13.23;5.03;;;;;;;17.43;100.00;101446.28;10403611;28;20033;-76
2022/08/22 22:39:47;;;;;;;8.02;4.32;;;;;;;17.37;100.00;101463.28;10373912;28;20065;-76
2022/08/22 22:44:47;;;;;;;9.63;5.38;;;;;;;17.28;100.00;101460.25;10372759;28;20045;-76
2022/08/22 22:49:48;;;;;;;15.00;5.53;;;;;;;17.18;100.00;101463.06;10375830;28;20034;-76
2022/08/22 22:54:49;;;;;;;8.48;4.82;;;;;;;17.00;100.00;101459.00;10415669;28;20041;-75
2022/08/22 22:59:49;;;;;;;8.85;5.20;;;;;;;16.99;100.00;101472.06;10398911;28;20045;-70
2022/08/22 23:04:53;;;;;;;11.23;4.95;;;;;;;16.82;100.00;101452.09;10392402;28;20042;-76
2022/08/22 23:09:54;;;;;;;14.50;5.25;;;;;;;16.78;100.00;101445.38;10339961;28;20041;-76
2022/08/22 23:14:55;;;;;;;9.55;5.35;;;;;;;16.44;100.00;101418.22;10349262;28;20030;-76
2022/08/22 23:19:55;;;;;;;12.35;6.00;;;;;;;16.69;100.00;101465.44;10332814;28;20034;-76
2022/08/22 23:24:56;;;;;;;12.73;6.22;;;;;;;16.60;100.00;101461.56;10370671;28;20042;-76
2022/08/22 23:29:56;;;;;;;12.52;6.28;;;;;;;16.55;100.00;101465.16;10372826;28;20476;-76
2022/08/22 23:34:57;;;;;;;9.80;6.57;;;;;;;16.47;100.00;101456.56;10375562;28;20054;-76
2022/08/22 23:39:57;;;;;;;8.88;5.63;;;;;;;16.48;100.00;101464.63;10374471;28;20045;-77
2022/08/22 23:44:58;;;;;;;16.15;7.32;;;;;;;16.46;100.00;101472.41;10372389;28;20088;-77